Thunder radar more information blitzortung!


Radar de pluja more information rain snow radar


Visita la nostra xarxa de llocs de meteo:

Template documentation
and downloads

And another site



No particular awareness of the weather is required.    There are no Weather-warnings

Pagina Historial Weather Underground text

Diari Resum Novembre 27, 2017 Unitats:  Imperial    Mètric   Tant
« Previous Dia
SegĂźent Dia »
Diari Setmana Mensual Anual Personalitzada
  Maxima: Minima: Media:
Temperatura: TemperatureC °F 2.0 °F 7.8 °F
Punt de rosada: DewpointC °F -4.9 °F -0.9 °F
Humitat: Humidity % 48 % 54 %
Wind Speed: WindSpeedKMH mph 0.0 mph 2.6 mph
RĂ fegues de vent: WindSpeedGustKMH mph - -
Vent:- - South
Pression baro: PressurehPa in 1018.8 in -
Precipitacions: 0.0 in    
Historical Graphs
 
 
Dades de taula per Novembre 27, 2017
Temps Temperatura Punt de rosada Pression baro Vent Wind Speed RĂ fegues de vent Humitat Rainfall Rate (Hourly)
TemperatureC °F DewpointC °F PressurehPa in Calm     Humidity % HourlyPrecipMM in
00:00 4.4 °F -4.9 °F 1030.0 in SE 1.9 mph   51 % 0.0 in
00:05 4.4 °F -4.9 °F 1030.0 in ENE 1.9 mph   51 % 0.0 in
00:10 4.3 °F -4.9 °F 1030.0 in WNW 1.9 mph 1.9 mph 51 % 0.0 in
00:15 3.0 °F -4.7 °F 1029.0 in WSW 3.2 mph 3.2 mph 57 % 0.0 in
00:25 2.8 °F -4.7 °F 1029.0 in WSW 1.6 mph 3.2 mph 58 % 0.0 in
00:35 2.9 °F -4.3 °F 1029.0 in Calm   3.2 mph 59 % 0.0 in
00:45 2.7 °F -4.3 °F 1029.0 in Calm   1.6 mph 60 % 0.0 in
00:55 2.8 °F -4.2 °F 1029.0 in Calm   3.2 mph 60 % 0.0 in
01:05 2.7 °F -4.3 °F 1030.0 in Calm   1.6 mph 60 % 0.0 in
01:15 2.6 °F -4.4 °F 1030.0 in Calm   1.6 mph 60 % 0.0 in
01:25 2.4 °F -4.6 °F 1030.0 in NNW 3.2 mph 3.2 mph 60 % 0.0 in
01:35 2.1 °F -4.7 °F 1030.0 in WNW 1.6 mph 3.2 mph 61 % 0.0 in
01:45 2.1 °F -4.7 °F 1030.0 in ENE 1.6 mph   61 % 0.0 in
01:55 2.0 °F -4.7 °F 1030.0 in Calm     61 % 0.0 in
02:05 2.0 °F -4.7 °F 1030.0 in Calm   3.2 mph 61 % 0.0 in
02:15 2.2 °F -4.3 °F 1030.0 in Calm   3.2 mph 62 % 0.0 in
02:25 2.6 °F -3.9 °F 1030.0 in Calm   3.2 mph 62 % 0.0 in
02:35 3.0 °F -3.6 °F 1030.0 in NNE 1.6 mph 3.2 mph 62 % 0.0 in
02:45 3.6 °F -3.0 °F 1030.0 in NE 1.6 mph   62 % 0.0 in
02:55 3.7 °F -3.1 °F 1030.0 in NE 1.6 mph 4.8 mph 61 % 0.0 in
03:05 4.3 °F -2.6 °F 1030.0 in NE 1.6 mph 1.6 mph 61 % 0.0 in
03:15 5.0 °F -2.1 °F 1030.0 in Calm   1.6 mph 60 % 0.0 in
03:25 5.6 °F -1.8 °F 1030.0 in SE 1.6 mph 1.6 mph 59 % 0.0 in
03:35 5.1 °F -2.5 °F 1030.0 in East 3.2 mph 3.2 mph 58 % 0.0 in
03:45 5.1 °F -2.7 °F 1030.0 in ENE 3.2 mph 4.8 mph 57 % 0.0 in
03:55 5.6 °F -2.3 °F 1030.7 in ENE 3.2 mph 3.2 mph 57 % 0.0 in
04:05 5.8 °F -2.1 °F 1030.7 in NE 1.6 mph 4.8 mph 57 % 0.0 in
04:15 6.0 °F -2.1 °F 1030.7 in NE 4.8 mph 6.4 mph 56 % 0.0 in
04:25 6.2 °F -2.2 °F 1030.7 in NE 4.8 mph 6.4 mph 55 % 0.0 in
04:35 7.0 °F -1.2 °F 1030.7 in NE 1.6 mph 3.2 mph 56 % 0.0 in
10:41 7.2 °F -1.2 °F 1030.7 in ENE 3.7 mph 3.7 mph 55 % 0.0 in
10:42 7.2 °F -1.2 °F 1030.7 in ENE 3.9 mph 3.9 mph 55 % 0.0 in
10:46 7.4 °F -1.1 °F 1030.0 in SW 1.9 mph 1.9 mph 55 % 0.0 in
10:51 7.8 °F -0.7 °F 1030.0 in ENE 3.7 mph 3.7 mph 55 % 0.0 in
10:56 8.0 °F -0.8 °F 1030.0 in ESE 3.7 mph 3.7 mph 54 % 0.0 in
11:01 8.1 °F -0.7 °F 1030.7 in East 3.7 mph 3.7 mph 54 % 0.0 in
11:06 8.4 °F -0.4 °F 1030.7 in ESE 3.7 mph 3.7 mph 54 % 0.0 in
11:11 8.6 °F -0.4 °F 1030.7 in SW 3.7 mph 3.7 mph 53 % 0.0 in
11:16 8.9 °F 0.1 °F 1030.0 in East 1.9 mph 1.9 mph 54 % 0.0 in
11:21 8.9 °F -0.2 °F 1030.0 in ENE 3.7 mph 3.7 mph 53 % 0.0 in
11:26 9.0 °F -0.1 °F 1030.0 in SE 1.9 mph 1.9 mph 53 % 0.0 in
11:31 9.6 °F 0.5 °F 1030.0 in South 2.3 mph   53 % 0.0 in
11:36 9.7 °F 0.6 °F 1030.0 in South 3.9 mph 3.9 mph 53 % 0.0 in
11:41 9.6 °F 0.5 °F 1030.0 in SSE 1.9 mph 1.9 mph 53 % 0.0 in
11:46 9.5 °F 0.4 °F 1030.0 in NNE 3.7 mph 3.7 mph 53 % 0.0 in
11:51 9.5 °F 0.4 °F 1030.0 in ESE 3.7 mph 3.7 mph 53 % 0.0 in
11:57 9.6 °F 0.2 °F 1030.0 in South 3.7 mph   52 % 0.0 in
12:02 10.4 °F 1.2 °F 1030.0 in South 1.9 mph   53 % 0.0 in
12:07 10.2 °F 1.1 °F 1030.0 in NNW 3.7 mph 3.7 mph 53 % 0.0 in
12:12 10.7 °F 1.5 °F 1030.0 in ENE 2.3 mph   53 % 0.0 in
12:17 10.5 °F 1.1 °F 1030.0 in WNW 3.7 mph 3.7 mph 52 % 0.0 in
12:22 10.7 °F 1.2 °F 1030.0 in East 3.7 mph 3.7 mph 52 % 0.0 in
12:27 10.6 °F 1.2 °F 1030.0 in East 5.6 mph 5.6 mph 52 % 0.0 in
12:32 10.6 °F 1.2 °F 1030.0 in NE 7.4 mph 7.4 mph 52 % 0.0 in
12:42 10.7 °F 1.2 °F 1030.0 in WSW 3.7 mph 3.7 mph 52 % 0.0 in
12:47 11.3 °F 1.8 °F 1029.0 in ENE 5.0 mph 5.0 mph 52 % 0.0 in
12:52 11.2 °F 1.7 °F 1029.0 in NE 5.6 mph 5.6 mph 52 % 0.0 in
12:57 11.3 °F 1.8 °F 1029.0 in NNW 5.6 mph 5.6 mph 52 % 0.0 in
13:02 11.7 °F 2.2 °F 1029.0 in NW 7.4 mph 7.4 mph 52 % 0.0 in
13:07 12.2 °F 2.6 °F 1029.0 in SW 11.1 mph 11.1 mph 52 % 0.0 in
13:12 12.2 °F 2.3 °F 1029.0 in WSW 4.2 mph 4.2 mph 51 % 0.0 in
13:17 12.5 °F 2.6 °F 1028.0 in WSW 6.4 mph 6.4 mph 51 % 0.0 in
13:22 12.5 °F 2.6 °F 1028.0 in WSW 7.4 mph 7.4 mph 51 % 0.0 in
13:27 12.7 °F 2.8 °F 1028.0 in WSW 3.7 mph 3.7 mph 51 % 0.0 in
13:32 12.9 °F 3.0 °F 1028.0 in SW 10.0 mph 10.0 mph 51 % 0.0 in
13:37 12.7 °F 2.8 °F 1028.0 in WSW 7.9 mph 7.9 mph 51 % 0.0 in
13:42 12.7 °F 2.6 °F 1028.0 in West 3.9 mph 3.9 mph 50 % 0.0 in
13:47 12.7 °F 2.6 °F 1028.0 in SSW 9.7 mph 9.7 mph 50 % 0.0 in
13:57 12.3 °F 1.9 °F 1028.0 in SW 7.4 mph 7.4 mph 49 % 0.0 in
14:02 12.2 °F 1.8 °F 1028.0 in West 7.4 mph 7.4 mph 49 % 0.0 in
14:07 12.2 °F 1.8 °F 1028.0 in SSW 5.6 mph 5.6 mph 49 % 0.0 in
14:08 12.2 °F 1.8 °F 1028.0 in SW 5.6 mph 5.6 mph 49 % 0.0 in
14:13 12.1 °F 1.7 °F 1028.0 in WSW 6.4 mph 6.4 mph 49 % 0.0 in
14:18 12.1 °F 1.7 °F 1028.0 in WSW 6.4 mph 6.4 mph 49 % 0.0 in
14:23 12.1 °F 1.7 °F 1028.0 in WSW 3.7 mph 3.7 mph 49 % 0.0 in
14:28 12.3 °F 1.9 °F 1028.0 in SSW 5.6 mph 5.6 mph 49 % 0.0 in
14:33 12.4 °F 1.9 °F 1028.0 in WSW 5.6 mph 5.6 mph 49 % 0.0 in
14:38 12.5 °F 2.1 °F 1028.0 in WSW 5.6 mph 5.6 mph 49 % 0.0 in
14:43 12.5 °F 2.1 °F 1028.0 in SW 5.0 mph 5.0 mph 49 % 0.0 in
14:53 12.5 °F 2.1 °F 1028.0 in SSW 7.4 mph 7.4 mph 49 % 0.0 in
14:58 12.7 °F 2.2 °F 1028.0 in SW 1.9 mph 1.9 mph 49 % 0.0 in
15:03 12.7 °F 2.2 °F 1027.0 in SW 5.6 mph 5.6 mph 49 % 0.0 in
15:13 12.7 °F 2.2 °F 1027.0 in SW 3.7 mph 3.7 mph 49 % 0.0 in
15:18 12.5 °F 2.1 °F 1027.0 in SSW 7.4 mph 7.4 mph 49 % 0.0 in
15:23 12.3 °F 1.6 °F 1027.0 in SW 3.7 mph 3.7 mph 48 % 0.0 in
15:28 12.3 °F 1.6 °F 1027.0 in SW 3.7 mph 3.7 mph 48 % 0.0 in
15:33 12.3 °F 1.6 °F 1027.0 in SW 4.2 mph   48 % 0.0 in
15:38 12.2 °F 1.5 °F 1027.0 in SSW 5.6 mph 5.6 mph 48 % 0.0 in
15:43 12.1 °F 1.4 °F 1027.0 in WSW 5.6 mph 5.6 mph 48 % 0.0 in
15:48 12.0 °F 1.3 °F 1027.0 in SW 5.6 mph 5.6 mph 48 % 0.0 in
15:53 11.8 °F 1.1 °F 1027.0 in SW 5.6 mph 5.6 mph 48 % 0.0 in
15:58 11.9 °F 1.2 °F 1027.0 in WSW 3.7 mph 3.7 mph 48 % 0.0 in
16:03 11.8 °F 1.1 °F 1027.0 in WSW 1.9 mph   48 % 0.0 in
16:08 11.8 °F 1.1 °F 1027.0 in Calm     48 % 0.0 in
16:13 11.7 °F 1.1 °F 1027.0 in Calm     48 % 0.0 in
16:18 11.6 °F 0.9 °F 1028.0 in Calm     48 % 0.0 in
16:23 11.4 °F 0.8 °F 1028.0 in Calm     48 % 0.0 in
16:28 11.3 °F 0.7 °F 1028.0 in Calm     48 % 0.0 in
16:33 11.2 °F 0.6 °F 1027.0 in Calm     48 % 0.0 in
16:38 11.1 °F 0.5 °F 1027.0 in Calm     48 % 0.0 in
16:43 11.1 °F 0.8 °F 1027.0 in SW 3.7 mph 3.7 mph 49 % 0.0 in
16:48 11.1 °F 0.8 °F 1027.0 in Calm     49 % 0.0 in
16:53 11.0 °F 0.7 °F 1027.0 in WSW 2.3 mph 2.3 mph 49 % 0.0 in
16:58 10.8 °F 0.5 °F 1027.0 in WSW 1.9 mph 1.9 mph 49 % 0.0 in
17:03 10.6 °F 0.3 °F 1026.0 in WSW 1.9 mph   49 % 0.0 in
17:08 10.4 °F 0.1 °F 1026.0 in WSW 1.9 mph 1.9 mph 49 % 0.0 in
17:13 10.3 °F 0.1 °F 1026.0 in WSW 2.3 mph 2.3 mph 49 % 0.0 in
17:15 10.2 °F -0.1 °F 1026.0 in WSW 3.2 mph 3.2 mph 49 % 0.0 in
17:20 10.1 °F -0.2 °F 1026.0 in WSW 3.7 mph 3.7 mph 49 % 0.0 in
17:25 9.9 °F -0.3 °F 1026.0 in WSW 3.7 mph 3.7 mph 49 % 0.0 in
17:30 9.7 °F -0.5 °F 1026.0 in WSW 1.9 mph 1.9 mph 49 % 0.0 in
17:35 9.6 °F -0.6 °F 1026.0 in WSW 3.7 mph 3.7 mph 49 % 0.0 in
17:40 9.5 °F -0.7 °F 1026.0 in Calm     49 % 0.0 in
17:45 9.3 °F -0.6 °F 1026.0 in Calm     50 % 0.0 in
17:50 9.2 °F -0.7 °F 1026.0 in Calm     50 % 0.0 in
17:55 9.0 °F -0.9 °F 1026.0 in Calm     50 % 0.0 in
18:00 8.9 °F -1.0 °F 1026.0 in WSW 1.9 mph 2.3 mph 50 % 0.0 in
18:05 8.8 °F -1.1 °F 1026.0 in West 4.7 mph 4.7 mph 50 % 0.0 in
18:10 8.8 °F -1.1 °F 1026.0 in WSW 3.9 mph 3.9 mph 50 % 0.0 in
18:15 8.7 °F -0.9 °F 1026.0 in WSW 1.9 mph   51 % 0.0 in
18:20 8.6 °F -1.0 °F 1026.0 in WSW 3.7 mph 3.7 mph 51 % 0.0 in
18:25 8.5 °F -1.1 °F 1026.0 in Calm     51 % 0.0 in
18:30 8.4 °F -1.2 °F 1026.0 in WSW 1.9 mph   51 % 0.0 in
18:35 8.2 °F -1.3 °F 1026.0 in WSW 1.9 mph   51 % 0.0 in
18:40 8.1 °F -1.2 °F 1026.0 in Calm     52 % 0.0 in
18:45 7.9 °F -1.4 °F 1026.0 in Calm     52 % 0.0 in
18:50 7.8 °F -1.4 °F 1026.0 in Calm     52 % 0.0 in
18:55 7.8 °F -1.4 °F 1026.0 in SW 2.3 mph 2.3 mph 52 % 0.0 in
19:00 7.7 °F -1.3 °F 1026.0 in Calm     53 % 0.0 in
19:05 7.5 °F -1.5 °F 1026.0 in Calm     53 % 0.0 in
19:10 7.6 °F -1.4 °F 1026.0 in WSW 2.6 mph   53 % 0.0 in
19:15 7.6 °F -1.4 °F 1026.0 in Calm     53 % 0.0 in
19:20 7.7 °F -1.3 °F 1026.0 in SW 3.7 mph 3.7 mph 53 % 0.0 in
19:25 7.7 °F -1.1 °F 1026.0 in WSW 1.9 mph   54 % 0.0 in
19:30 7.8 °F -0.9 °F 1026.0 in WSW 3.7 mph 3.7 mph 54 % 0.0 in
19:35 7.7 °F -1.1 °F 1026.0 in WSW 3.7 mph 3.7 mph 54 % 0.0 in
19:40 7.7 °F -1.1 °F 1026.0 in WSW 4.2 mph 4.2 mph 54 % 0.0 in
19:45 7.7 °F -1.1 °F 1026.0 in SW 4.2 mph 4.2 mph 54 % 0.0 in
19:50 7.7 °F -1.1 °F 1026.0 in SW 3.7 mph 3.7 mph 54 % 0.0 in
19:55 7.6 °F -1.1 °F 1026.0 in SW 3.7 mph 3.7 mph 54 % 0.0 in
20:00 7.6 °F -1.1 °F 1026.0 in SW 5.6 mph 5.6 mph 54 % 0.0 in
20:05 7.5 °F -0.9 °F 1026.0 in SW 1.9 mph 1.9 mph 55 % 0.0 in
20:10 7.5 °F -0.9 °F 1026.0 in SW 3.7 mph 3.7 mph 55 % 0.0 in
20:15 7.4 °F -1.1 °F 1026.0 in SW 1.9 mph   55 % 0.0 in
20:20 7.3 °F -1.2 °F 1026.0 in SW 1.9 mph 1.9 mph 55 % 0.0 in
20:25 7.2 °F -1.0 °F 1026.0 in Calm     56 % 0.0 in
20:30 7.1 °F -1.1 °F 1026.0 in SW 1.4 mph   56 % 0.0 in
20:35 7.0 °F -1.2 °F 1026.0 in Calm     56 % 0.0 in
20:40 6.9 °F -1.6 °F 1026.0 in Calm     55 % 0.0 in
20:45 6.8 °F -1.6 °F 1026.0 in Calm     55 % 0.0 in
20:50 6.8 °F -1.6 °F 1026.0 in Calm     55 % 0.0 in
20:55 6.7 °F -1.7 °F 1026.0 in ENE 3.7 mph 3.7 mph 55 % 0.0 in
21:00 6.5 °F -1.7 °F 1026.0 in ENE 1.9 mph   56 % 0.0 in
21:05 6.3 °F -1.8 °F 1026.0 in Calm     56 % 0.0 in
21:10 6.3 °F -1.6 °F 1026.0 in Calm     57 % 0.0 in
21:15 6.1 °F -1.8 °F 1024.9 in Calm     57 % 0.0 in
21:20 6.0 °F -1.9 °F 1024.9 in SW 1.9 mph   57 % 0.0 in
21:25 5.8 °F -2.1 °F 1024.9 in Calm     57 % 0.0 in
21:30 5.8 °F -2.1 °F 1023.9 in SE 2.3 mph   57 % 0.0 in
21:35 5.7 °F -1.9 °F 1023.9 in Calm     58 % 0.0 in
21:40 5.6 °F -2.0 °F 1023.9 in South 3.7 mph   58 % 0.0 in
21:45 5.5 °F -2.1 °F 1023.9 in WSW 1.9 mph 1.9 mph 58 % 0.0 in
21:50 5.4 °F -2.2 °F 1023.9 in Calm     58 % 0.0 in
21:55 5.3 °F -2.3 °F 1023.9 in WSW 1.9 mph   58 % 0.0 in
22:00 5.2 °F -2.4 °F 1023.9 in SW 1.9 mph 1.9 mph 58 % 0.0 in
22:05 5.1 °F -2.5 °F 1023.9 in Calm     58 % 0.0 in
22:10 5.1 °F -2.5 °F 1023.9 in WSW 3.7 mph 3.7 mph 58 % 0.0 in
22:15 5.1 °F -2.5 °F 1023.9 in WSW 2.3 mph   58 % 0.0 in
22:20 5.1 °F -2.3 °F 1023.9 in Calm     59 % 0.0 in
22:25 5.1 °F -2.1 °F 1023.9 in Calm     60 % 0.0 in
22:30 5.1 °F -2.1 °F 1023.9 in Calm     60 % 0.0 in
22:33 5.1 °F -2.1 °F 1023.9 in Calm     60 % 0.0 in
22:35 2.7 °F -2.8 °F 1019.9 in NW 1.6 mph 3.2 mph 67 % 0.0 in
22:38 5.1 °F -2.1 °F 1023.9 in Calm     60 % 0.0 in
22:43 5.1 °F -2.1 °F 1023.9 in Calm     60 % 0.0 in
22:45 2.6 °F -2.9 °F 1019.9 in Calm   1.6 mph 67 % 0.0 in
22:48 5.1 °F -2.1 °F 1023.9 in NNE 3.7 mph 3.7 mph 60 % 0.0 in
22:53 5.0 °F -1.9 °F 1023.9 in NNE 1.9 mph   61 % 0.0 in
22:55 2.6 °F -2.9 °F 1019.9 in Calm     67 % 0.0 in
22:58 5.0 °F -1.9 °F 1023.9 in NE 3.7 mph 3.7 mph 61 % 0.0 in
23:03 4.9 °F -2.0 °F 1023.9 in NE 3.7 mph 3.7 mph 61 % 0.0 in
23:05 2.5 °F -3.0 °F 1019.9 in Calm     67 % 0.0 in
23:08 4.9 °F -2.0 °F 1023.9 in NE 1.9 mph   61 % 0.0 in
23:13 4.8 °F -2.1 °F 1023.9 in East 3.7 mph 3.7 mph 61 % 0.0 in
23:15 2.4 °F -3.1 °F 1019.9 in NNE 1.6 mph 1.6 mph 67 % 0.0 in
23:18 4.8 °F -2.1 °F 1023.9 in Calm     61 % 0.0 in
23:23 4.7 °F -2.2 °F 1023.9 in Calm     61 % 0.0 in
23:25 2.4 °F -3.1 °F 1019.9 in Calm   1.6 mph 67 % 0.0 in
23:28 4.6 °F -2.3 °F 1023.9 in SW 1.9 mph 1.9 mph 61 % 0.0 in
23:33 4.5 °F -2.4 °F 1023.9 in SW 1.9 mph 1.9 mph 61 % 0.0 in
23:35 2.4 °F -3.1 °F 1018.8 in Calm   3.2 mph 67 % 0.0 in
23:38 4.4 °F -2.5 °F 1023.9 in SW 1.9 mph   61 % 0.0 in
23:43 4.4 °F -2.5 °F 1023.9 in SW 3.7 mph 3.7 mph 61 % 0.0 in
23:45 2.3 °F -3.2 °F 1018.8 in Calm   3.2 mph 67 % 0.0 in
23:48 4.4 °F -2.5 °F 1023.9 in SW 1.9 mph   61 % 0.0 in
23:53 4.3 °F -2.6 °F 1023.9 in Calm     61 % 0.0 in
23:55 2.2 °F -3.3 °F 1018.8 in WSW 1.6 mph 3.2 mph 67 % 0.0 in
23:58 4.3 °F -2.3 °F 1023.9 in Calm     62 % 0.0 in
Meteo Sesrovires
Elogis d' Weather Underground - 3.5 mb

Guio original per  Jim McMurry - jmcmurry@mwt.net Adaptat per a la plantilla per  Wim van der Kuil - Leuven-Template.eu

Trobareu la nostra informacio del temps tambe a:

Weather Underground

AWEKAS